Aikoumaru No.8 — JD3288 — position and weather

sailwx.info

Track history (hours):
 
Tides and Currents Weather Stations Pressure Air Temp Water Temp Dewpoint Dewpoint Depression Visibility Wind Speed Wind Dir Waves Ship Positions

Aikoumaru No.8

Last reported at 2015-Mar-05 03:33 UTC. Time now 2015-Mar-07 04:25 UTC.
Position N 35°02' E 139°31'.

Length 74 m; draft 4.5 m.

Type: Cargo ship. MMSI: 431003153.

Date/timePositionNaut miles runAvg speedWind from/ knotsBaromVisibWave heightAir tempDewpointWater temp
2015-Mar-05 03:33N 35°02' E 139°31'1211.6
2015-Mar-05 02:33N 35°08' E 139°43'1010.5
2015-Mar-05 01:33N 35°19' E 139°43'6 5.5
2015-Mar-05 00:32N 35°24' E 139°39'0 0.0
2015-Mar-04 23:32N 35°24' E 139°39'0 0.0
2015-Mar-04 18:14N 35°24' E 139°39'0 0.0
2015-Mar-04 17:32N 35°24' E 139°39'0 0.0
2015-Mar-04 16:32N 35°24' E 139°39'0 0.0
2015-Mar-04 15:32N 35°24' E 139°39'0 0.1
2015-Mar-04 14:32N 35°24' E 139°39'0 0.0
2015-Mar-04 13:32N 35°24' E 139°39'0 0.0
2015-Mar-04 12:32N 35°24' E 139°39'0 0.0
2015-Mar-04 11:29N 35°24' E 139°39'0 0.0
2015-Mar-04 10:32N 35°24' E 139°39'0 0.0
2015-Mar-04 09:32N 35°24' E 139°39'0 0.0
2015-Mar-04 08:32N 35°24' E 139°39'0 0.0
2015-Mar-04 07:32N 35°24' E 139°39'0 0.0
2015-Mar-04 06:32N 35°24' E 139°39'0 0.0
2015-Mar-04 05:32N 35°24' E 139°39'0 0.0
2015-Mar-04 04:32N 35°24' E 139°39'0 0.1
2015-Mar-04 03:32N 35°24' E 139°39'0 0.1
2015-Mar-04 02:32N 35°24' E 139°39'0 0.1
2015-Mar-04 01:32N 35°24' E 139°39'0 0.0
2015-Mar-04 00:32N 35°24' E 139°39'0 0.0
2015-Mar-03 23:32N 35°24' E 139°39'0 0.0
2015-Mar-03 22:32N 35°24' E 139°39'2 2.0
2015-Mar-03 21:33N 35°24' E 139°42'8 8.2
2015-Mar-03 20:33N 35°21' E 139°51'0 0.0
2015-Mar-03 02:22N 35°21' E 139°51'1 0.9
2015-Mar-03 01:31N 35°22' E 139°51'0 0.0
2015-Mar-03 00:31N 35°22' E 139°51'0 0.0
2015-Mar-02 23:31N 35°22' E 139°51'0 0.0
2015-Mar-02 22:31N 35°22' E 139°51'0 0.0
2015-Mar-02 21:31N 35°22' E 139°51'0 0.0
2015-Mar-02 20:33N 35°22' E 139°51'1 1.2
2015-Mar-02 19:34N 35°22' E 139°49'0 0.1
2015-Mar-02 18:32N 35°22' E 139°49'0 0.0
2015-Mar-02 17:32N 35°22' E 139°49'0 0.0
2015-Mar-02 16:32N 35°22' E 139°49'0 0.0
2015-Mar-02 15:32N 35°22' E 139°49'0 0.0
2015-Mar-02 14:29N 35°22' E 139°49'0 0.0
2015-Mar-02 13:29N 35°22' E 139°49'7 5.1
2015-Mar-02 12:11N 35°28' E 139°50'10 1.6
2015-Mar-02 06:11N 35°37' E 139°56'0 0.0
2015-Mar-01 19:17N 35°37' E 139°56'0 0.0
2015-Mar-01 18:28N 35°37' E 139°56'0 0.0
2015-Mar-01 17:27N 35°37' E 139°56'0 0.0
2015-Mar-01 16:22N 35°37' E 139°56'0 0.0
2015-Mar-01 15:31N 35°37' E 139°56'0 0.0
2015-Mar-01 13:31N 35°37' E 139°56'0 0.0
2015-Feb-28 19:16N 35°37' E 139°57'11 3.0
2015-Feb-28 15:32N 35°27' E 139°50'1010.8
2015-Feb-28 14:34N 35°18' E 139°45'1110.7
2015-Feb-28 13:34N 35°07' E 139°44'24210.0
2015-Feb-27 13:27N 34°01' E 135°02'1112.6
2015-Feb-27 12:34N 34°12' E 135°03'1312.6
2015-Feb-27 11:33N 34°23' E 135°08'1412.3
2015-Feb-27 10:24N 34°34' E 135°20'6 0.9
2015-Feb-27 04:06N 34°34' E 135°27'0 0.0
2015-Feb-26 22:31N 34°34' E 135°27'0 0.1
2015-Feb-26 21:31N 34°34' E 135°27'0 0.1
2015-Feb-26 20:33N 34°34' E 135°27'0 0.0
2015-Feb-26 15:31N 34°34' E 135°27'0 0.1
2015-Feb-26 13:26N 34°34' E 135°27'1 0.3
2015-Feb-26 11:19N 34°35' E 135°27'0 0.0
2015-Feb-26 10:25N 34°35' E 135°27'0 0.0
2015-Feb-26 09:31N 34°35' E 135°27'0 0.0
2015-Feb-26 07:25N 34°35' E 135°27'0 0.0
2015-Feb-26 06:31N 34°35' E 135°27'0 0.0
2015-Feb-26 05:07N 34°35' E 135°27'0 0.0
2015-Feb-26 04:25N 34°35' E 135°27'0 0.0
2015-Feb-26 02:14N 34°35' E 135°27'6 8.8
2015-Feb-26 01:32N 34°34' E 135°19'1312.4
2015-Feb-26 00:30N 34°25' E 135°08'1112.0
2015-Feb-25 23:33N 34°14' E 135°03'  
Track history (hours):
 
Tides and Currents Weather Stations Pressure Air Temp Water Temp Dewpoint Dewpoint Depression Visibility Wind Speed Wind Dir Waves Ship Positions

Aikoumaru No.8

Last reported at 2015-Mar-05 03:33 UTC. Time now 2015-Mar-07 04:25 UTC.
Position N 35°02' E 139°31'.

Length 74 m; draft 4.5 m.

Type: Cargo ship. MMSI: 431003153.

Date/timePositionNaut miles runAvg speedWind from/ knotsBaromVisibWave heightAir tempDewpointWater temp
2015-Mar-05 03:33N 35°02' E 139°31'1211.6
2015-Mar-05 02:33N 35°08' E 139°43'1010.5
2015-Mar-05 01:33N 35°19' E 139°43'6 5.5
2015-Mar-05 00:32N 35°24' E 139°39'0 0.0
2015-Mar-04 23:32N 35°24' E 139°39'0 0.0
2015-Mar-04 18:14N 35°24' E 139°39'0 0.0
2015-Mar-04 17:32N 35°24' E 139°39'0 0.0
2015-Mar-04 16:32N 35°24' E 139°39'0 0.0
2015-Mar-04 15:32N 35°24' E 139°39'0 0.1
2015-Mar-04 14:32N 35°24' E 139°39'0 0.0
2015-Mar-04 13:32N 35°24' E 139°39'0 0.0
2015-Mar-04 12:32N 35°24' E 139°39'0 0.0
2015-Mar-04 11:29N 35°24' E 139°39'0 0.0
2015-Mar-04 10:32N 35°24' E 139°39'0 0.0
2015-Mar-04 09:32N 35°24' E 139°39'0 0.0
2015-Mar-04 08:32N 35°24' E 139°39'0 0.0
2015-Mar-04 07:32N 35°24' E 139°39'0 0.0
2015-Mar-04 06:32N 35°24' E 139°39'0 0.0
2015-Mar-04 05:32N 35°24' E 139°39'0 0.0
2015-Mar-04 04:32N 35°24' E 139°39'0 0.1
2015-Mar-04 03:32N 35°24' E 139°39'0 0.1
2015-Mar-04 02:32N 35°24' E 139°39'0 0.1
2015-Mar-04 01:32N 35°24' E 139°39'0 0.0
2015-Mar-04 00:32N 35°24' E 139°39'0 0.0
2015-Mar-03 23:32N 35°24' E 139°39'0 0.0
2015-Mar-03 22:32N 35°24' E 139°39'2 2.0
2015-Mar-03 21:33N 35°24' E 139°42'8 8.2
2015-Mar-03 20:33N 35°21' E 139°51'0 0.0
2015-Mar-03 02:22N 35°21' E 139°51'1 0.9
2015-Mar-03 01:31N 35°22' E 139°51'0 0.0
2015-Mar-03 00:31N 35°22' E 139°51'0 0.0
2015-Mar-02 23:31N 35°22' E 139°51'0 0.0
2015-Mar-02 22:31N 35°22' E 139°51'0 0.0
2015-Mar-02 21:31N 35°22' E 139°51'0 0.0
2015-Mar-02 20:33N 35°22' E 139°51'1 1.2
2015-Mar-02 19:34N 35°22' E 139°49'0 0.1
2015-Mar-02 18:32N 35°22' E 139°49'0 0.0
2015-Mar-02 17:32N 35°22' E 139°49'0 0.0
2015-Mar-02 16:32N 35°22' E 139°49'0 0.0
2015-Mar-02 15:32N 35°22' E 139°49'0 0.0
2015-Mar-02 14:29N 35°22' E 139°49'0 0.0
2015-Mar-02 13:29N 35°22' E 139°49'7 5.1
2015-Mar-02 12:11N 35°28' E 139°50'10 1.6
2015-Mar-02 06:11N 35°37' E 139°56'0 0.0
2015-Mar-01 19:17N 35°37' E 139°56'0 0.0
2015-Mar-01 18:28N 35°37' E 139°56'0 0.0
2015-Mar-01 17:27N 35°37' E 139°56'0 0.0
2015-Mar-01 16:22N 35°37' E 139°56'0 0.0
2015-Mar-01 15:31N 35°37' E 139°56'0 0.0
2015-Mar-01 13:31N 35°37' E 139°56'0 0.0
2015-Feb-28 19:16N 35°37' E 139°57'11 3.0
2015-Feb-28 15:32N 35°27' E 139°50'1010.8
2015-Feb-28 14:34N 35°18' E 139°45'1110.7
2015-Feb-28 13:34N 35°07' E 139°44'24210.0
2015-Feb-27 13:27N 34°01' E 135°02'1112.6
2015-Feb-27 12:34N 34°12' E 135°03'1312.6
2015-Feb-27 11:33N 34°23' E 135°08'1412.3
2015-Feb-27 10:24N 34°34' E 135°20'6 0.9
2015-Feb-27 04:06N 34°34' E 135°27'0 0.0
2015-Feb-26 22:31N 34°34' E 135°27'0 0.1
2015-Feb-26 21:31N 34°34' E 135°27'0 0.1
2015-Feb-26 20:33N 34°34' E 135°27'0 0.0
2015-Feb-26 15:31N 34°34' E 135°27'0 0.1
2015-Feb-26 13:26N 34°34' E 135°27'1 0.3
2015-Feb-26 11:19N 34°35' E 135°27'0 0.0
2015-Feb-26 10:25N 34°35' E 135°27'0 0.0
2015-Feb-26 09:31N 34°35' E 135°27'0 0.0
2015-Feb-26 07:25N 34°35' E 135°27'0 0.0
2015-Feb-26 06:31N 34°35' E 135°27'0 0.0
2015-Feb-26 05:07N 34°35' E 135°27'0 0.0
2015-Feb-26 04:25N 34°35' E 135°27'0 0.0
2015-Feb-26 02:14N 34°35' E 135°27'6 8.8
2015-Feb-26 01:32N 34°34' E 135°19'1312.4
2015-Feb-26 00:30N 34°25' E 135°08'1112.0
2015-Feb-25 23:33N 34°14' E 135°03'  

Dump ship's entire track history